createdAt,value
2022-10-18T00:00:20.202Z,999.55
2022-10-18T00:01:21.921Z,999.5
2022-10-18T00:02:23.748Z,999.52
2022-10-18T00:03:25.375Z,999.48
2022-10-18T00:04:27.114Z,999.49
2022-10-18T00:05:28.852Z,999.5
2022-10-18T00:06:30.595Z,999.5
2022-10-18T00:07:32.819Z,999.52
2022-10-18T00:08:34.059Z,999.54
2022-10-18T00:09:35.782Z,999.51
2022-10-18T00:10:37.533Z,999.52
2022-10-18T00:11:39.255Z,999.5
2022-10-18T00:12:41.054Z,999.46
2022-10-18T00:13:42.803Z,999.48
2022-10-18T00:14:44.454Z,999.44
2022-10-18T00:15:46.256Z,999.44
2022-10-18T00:16:47.917Z,999.45
2022-10-18T00:17:49.668Z,999.4
2022-10-18T00:18:51.417Z,999.42
2022-10-18T00:19:53.133Z,999.41
2022-10-18T00:20:54.872Z,999.36
2022-10-18T00:21:56.586Z,999.41
2022-10-18T00:22:58.333Z,999.41
2022-10-18T00:24:00.101Z,999.41
2022-10-18T00:25:01.794Z,999.41
2022-10-18T00:26:03.530Z,999.42
2022-10-18T00:27:05.270Z,999.39
2022-10-18T00:28:07.005Z,999.43
2022-10-18T00:29:08.765Z,999.39
2022-10-18T00:30:10.479Z,999.39
2022-10-18T00:31:12.236Z,999.41
2022-10-18T00:32:13.960Z,999.39
2022-10-18T00:33:15.666Z,999.4
2022-10-18T00:34:17.413Z,999.4
2022-10-18T00:35:19.142Z,999.39
2022-10-18T00:36:20.882Z,999.4
2022-10-18T00:37:22.626Z,999.41
2022-10-18T00:38:24.343Z,999.45
2022-10-18T00:39:26.099Z,999.47
2022-10-18T00:40:27.823Z,999.46
2022-10-18T00:41:29.574Z,999.52
2022-10-18T00:42:31.592Z,999.52
2022-10-18T00:43:33.065Z,999.53
2022-10-18T00:44:34.745Z,999.54
2022-10-18T00:45:36.486Z,999.5
2022-10-18T00:46:38.222Z,999.59
2022-10-18T00:47:39.973Z,999.59
2022-10-18T00:48:41.733Z,999.61
2022-10-18T00:49:43.435Z,999.66
2022-10-18T00:50:45.169Z,999.65
2022-10-18T00:51:46.891Z,999.64
2022-10-18T00:52:48.640Z,999.64
2022-10-18T00:53:50.376Z,999.53
2022-10-18T00:54:52.149Z,999.51
2022-10-18T00:55:53.843Z,999.46
2022-10-18T00:56:55.567Z,999.43
2022-10-18T00:57:57.395Z,999.46
2022-10-18T00:58:59.064Z,999.46
2022-10-18T01:00:00.791Z,999.43
2022-10-18T01:01:02.520Z,999.44
2022-10-18T01:02:04.331Z,999.39
2022-10-18T01:03:05.979Z,999.43
2022-10-18T01:04:07.754Z,999.43
2022-10-18T01:05:09.454Z,999.41
2022-10-18T01:06:11.194Z,999.4
2022-10-18T01:07:12.934Z,999.41
2022-10-18T01:08:14.662Z,999.43
2022-10-18T01:09:16.407Z,999.39
2022-10-18T01:10:18.137Z,999.39
2022-10-18T01:11:19.894Z,999.36
2022-10-18T01:12:21.597Z,999.37
2022-10-18T01:13:25.682Z,999.33
2022-10-18T01:14:25.074Z,999.34
2022-10-18T01:15:26.807Z,999.36
2022-10-18T01:16:28.542Z,999.32
2022-10-18T01:17:30.667Z,999.34
2022-10-18T01:18:32.010Z,999.31
2022-10-18T01:19:33.763Z,999.3
2022-10-18T01:20:35.472Z,999.28
2022-10-18T01:21:37.266Z,999.31
2022-10-18T01:22:38.941Z,999.26
2022-10-18T01:23:40.686Z,999.22
2022-10-18T01:24:42.420Z,999.26
2022-10-18T01:25:44.152Z,999.25
2022-10-18T01:26:45.881Z,999.26
2022-10-18T01:27:47.624Z,999.26
2022-10-18T01:28:49.499Z,999.27
2022-10-18T01:29:51.089Z,999.29
2022-10-18T01:30:52.833Z,999.28
2022-10-18T01:31:56.411Z,999.3
2022-10-18T01:32:56.290Z,999.34
2022-10-18T01:33:58.140Z,999.34
2022-10-18T01:34:59.762Z,999.3
2022-10-18T01:36:01.495Z,999.32
2022-10-18T01:37:03.237Z,999.22
2022-10-18T01:38:04.973Z,999.29
2022-10-18T01:39:06.729Z,999.27
2022-10-18T01:40:08.354Z,999.31
2022-10-18T01:41:13.236Z,999.27
2022-10-18T01:42:11.798Z,999.29
2022-10-18T01:43:13.525Z,999.23
2022-10-18T01:44:15.357Z,999.2
2022-10-18T01:45:16.996Z,999.2
2022-10-18T01:46:18.772Z,999.1
2022-10-18T01:47:20.471Z,999.07
2022-10-18T01:48:22.195Z,999.05
2022-10-18T01:49:23.974Z,999.03
2022-10-18T01:50:25.706Z,998.99
2022-10-18T01:51:27.455Z,998.98
2022-10-18T01:52:29.375Z,998.99
2022-10-18T01:53:30.865Z,998.91
2022-10-18T01:54:32.607Z,998.94
2022-10-18T01:55:34.339Z,998.91
2022-10-18T01:56:36.120Z,998.84
2022-10-18T01:57:37.813Z,998.84
2022-10-18T01:58:39.550Z,998.84
2022-10-18T01:59:41.270Z,998.85
2022-10-18T02:00:43.021Z,998.82
2022-10-18T02:01:44.758Z,998.8
2022-10-18T02:02:46.490Z,998.82
2022-10-18T02:03:48.225Z,998.82
2022-10-18T02:04:49.973Z,998.8
2022-10-18T02:05:51.693Z,998.85
2022-10-18T02:06:53.451Z,998.86
2022-10-18T02:08:05.688Z,998.84
2022-10-18T02:08:56.934Z,998.83
2022-10-18T02:09:58.670Z,998.84
2022-10-18T02:11:00.379Z,998.84
2022-10-18T02:12:02.107Z,998.81
2022-10-18T02:13:03.833Z,998.77
2022-10-18T02:14:05.567Z,998.8
2022-10-18T02:15:07.306Z,998.8
2022-10-18T02:16:09.040Z,998.81
2022-10-18T02:17:10.805Z,998.79
2022-10-18T02:18:12.500Z,998.84
2022-10-18T02:19:14.334Z,998.84
2022-10-18T02:20:15.971Z,998.89
2022-10-18T02:21:17.711Z,998.89
2022-10-18T02:22:19.449Z,998.9
2022-10-18T02:23:21.193Z,998.86
2022-10-18T02:24:22.910Z,998.91
2022-10-18T02:25:24.640Z,998.95
2022-10-18T02:26:26.374Z,998.97
2022-10-18T02:27:28.151Z,998.97
2022-10-18T02:28:29.867Z,998.99
2022-10-18T02:29:31.577Z,999
2022-10-18T02:30:33.371Z,999.05
2022-10-18T02:31:35.051Z,999.05
2022-10-18T02:32:36.816Z,999.06
2022-10-18T02:33:38.561Z,999.15
2022-10-18T02:34:40.423Z,999.24
2022-10-18T02:35:42.024Z,999.36
2022-10-18T02:36:43.724Z,999.54
2022-10-18T02:37:45.488Z,999.62
2022-10-18T02:38:47.202Z,999.68
2022-10-18T02:39:48.947Z,999.62
2022-10-18T02:40:50.712Z,999.62
2022-10-18T02:41:52.416Z,999.65
2022-10-18T02:42:54.140Z,999.69
2022-10-18T02:43:55.879Z,999.69
2022-10-18T02:44:57.617Z,999.73
2022-10-18T02:45:59.386Z,999.68
2022-10-18T02:47:01.139Z,999.66
2022-10-18T02:48:02.821Z,999.58
2022-10-18T02:49:04.552Z,999.56
2022-10-18T02:50:06.336Z,999.61
2022-10-18T02:51:08.055Z,999.51
2022-10-18T02:52:09.752Z,999.52
2022-10-18T02:53:11.528Z,999.48
2022-10-18T02:54:13.258Z,999.43
2022-10-18T02:55:14.987Z,999.34
2022-10-18T02:56:16.695Z,999.3
2022-10-18T02:57:18.421Z,999.32
2022-10-18T02:58:20.194Z,999.28
2022-10-18T02:59:21.883Z,999.28
2022-10-18T03:00:23.653Z,999.21
2022-10-18T03:01:25.476Z,999.15
2022-10-18T03:02:27.100Z,999.17
2022-10-18T03:03:28.865Z,999.14
2022-10-18T03:04:30.567Z,999.12
2022-10-18T03:05:32.328Z,999.05
2022-10-18T03:06:34.040Z,999.07
2022-10-18T03:07:35.789Z,999.03
2022-10-18T03:08:37.494Z,999.06
2022-10-18T03:09:39.236Z,999.12
2022-10-18T03:10:40.969Z,999.13
2022-10-18T03:11:42.737Z,999.19
2022-10-18T03:12:44.480Z,999.32
2022-10-18T03:13:46.182Z,999.29
2022-10-18T03:14:47.951Z,999.3
2022-10-18T03:15:49.641Z,999.33
2022-10-18T03:16:51.376Z,999.31
2022-10-18T03:17:53.117Z,999.3
2022-10-18T03:18:54.895Z,999.21
2022-10-18T03:19:56.582Z,999.19
2022-10-18T03:20:58.323Z,999.14
2022-10-18T03:22:00.071Z,999.15
2022-10-18T03:23:01.820Z,999.22
2022-10-18T03:24:03.514Z,999.15
2022-10-18T03:25:05.256Z,999.19
2022-10-18T03:26:07.004Z,999.19
2022-10-18T03:27:08.756Z,999.17
2022-10-18T03:28:10.459Z,999.15
2022-10-18T03:29:12.193Z,999.12
2022-10-18T03:30:13.974Z,999.04
2022-10-18T03:31:15.669Z,999.04
2022-10-18T03:32:17.403Z,998.99
2022-10-18T03:33:19.166Z,998.97
2022-10-18T03:34:20.861Z,998.98
2022-10-18T03:35:22.597Z,998.99
2022-10-18T03:36:24.326Z,999.02
2022-10-18T03:37:26.063Z,999.1
2022-10-18T03:38:27.785Z,999.15
2022-10-18T03:39:29.558Z,999.28
2022-10-18T03:41:33.055Z,999.58
2022-10-18T03:42:35.081Z,999.81
2022-10-18T03:43:36.488Z,999.89
2022-10-18T03:44:38.211Z,999.96
2022-10-18T03:45:39.970Z,1000.01
2022-10-18T03:46:41.687Z,1000.07
2022-10-18T03:47:43.413Z,1000.2
2022-10-18T03:48:45.200Z,1000.26
2022-10-18T03:49:46.889Z,1000.11
2022-10-18T03:50:48.671Z,999.95
2022-10-18T03:51:50.403Z,999.81
2022-10-18T03:52:52.107Z,999.72
2022-10-18T03:53:53.861Z,999.74
2022-10-18T03:54:55.568Z,999.83
2022-10-18T03:55:57.295Z,999.95
2022-10-18T03:56:59.034Z,1000.08
2022-10-18T03:58:00.778Z,1000.16
2022-10-18T03:59:02.530Z,1000.14
2022-10-18T04:00:04.237Z,1000.14
2022-10-18T04:01:05.967Z,1000.05
2022-10-18T04:02:07.746Z,999.98
2022-10-18T04:03:09.440Z,999.93
2022-10-18T04:04:11.176Z,999.92
2022-10-18T04:05:12.946Z,999.92
2022-10-18T04:06:14.661Z,999.91
2022-10-18T04:07:16.425Z,999.86
2022-10-18T04:08:18.121Z,999.85
2022-10-18T04:09:19.900Z,999.86
2022-10-18T04:10:21.588Z,999.8
2022-10-18T04:11:23.326Z,999.8
2022-10-18T04:12:25.089Z,999.79
2022-10-18T04:13:26.833Z,999.75
2022-10-18T04:14:28.572Z,999.73
2022-10-18T04:15:30.309Z,999.74
2022-10-18T04:16:32.144Z,999.68
2022-10-18T04:17:34.209Z,999.66
2022-10-18T04:18:35.506Z,999.65
2022-10-18T04:19:38.229Z,999.6
2022-10-18T04:20:38.920Z,999.62
2022-10-18T04:21:40.668Z,999.6
2022-10-18T04:22:42.401Z,999.65
2022-10-18T04:23:44.188Z,999.63
2022-10-18T04:24:45.919Z,999.58
2022-10-18T04:25:47.645Z,999.56
2022-10-18T04:26:49.387Z,999.58
2022-10-18T04:27:51.117Z,999.6
2022-10-18T04:28:52.913Z,999.59
2022-10-18T04:29:54.543Z,999.63
2022-10-18T04:30:56.313Z,999.67
2022-10-18T04:31:58.056Z,999.65
2022-10-18T04:32:59.795Z,999.63
2022-10-18T04:34:01.507Z,999.6
2022-10-18T04:35:03.261Z,999.6
2022-10-18T04:36:04.953Z,999.61
2022-10-18T04:37:06.674Z,999.66
2022-10-18T04:38:08.449Z,999.67
2022-10-18T04:39:10.184Z,999.63
2022-10-18T04:40:11.931Z,999.63
2022-10-18T04:41:13.633Z,999.54
2022-10-18T04:42:15.362Z,999.54
2022-10-18T04:43:17.090Z,999.5
2022-10-18T04:44:18.822Z,999.56
2022-10-18T04:45:20.560Z,999.6
2022-10-18T04:46:22.300Z,999.52
2022-10-18T04:47:24.061Z,999.57
2022-10-18T04:48:25.764Z,999.55
2022-10-18T04:49:27.522Z,999.56
2022-10-18T04:50:29.237Z,999.58
2022-10-18T04:51:30.968Z,999.55
2022-10-18T04:52:32.698Z,999.59
2022-10-18T04:53:34.467Z,999.52
2022-10-18T04:54:36.177Z,999.56
2022-10-18T04:55:37.955Z,999.55
2022-10-18T04:56:39.655Z,999.54
2022-10-18T04:57:41.406Z,999.54
2022-10-18T04:58:43.126Z,999.5
2022-10-18T04:59:44.878Z,999.5
2022-10-18T05:00:46.579Z,999.49
2022-10-18T05:01:48.476Z,999.49
2022-10-18T05:02:50.055Z,999.5
2022-10-18T05:03:51.832Z,999.51
2022-10-18T05:04:53.574Z,999.53
2022-10-18T05:06:01.900Z,999.46
2022-10-18T05:06:57.021Z,999.47
2022-10-18T05:07:58.765Z,999.46
2022-10-18T05:09:00.460Z,999.44
2022-10-18T05:10:02.198Z,999.47
2022-10-18T05:11:04.032Z,999.49
2022-10-18T05:12:05.675Z,999.49
2022-10-18T05:13:07.456Z,999.51
2022-10-18T05:14:09.165Z,999.5
2022-10-18T05:15:10.916Z,999.52
2022-10-18T05:16:12.596Z,999.45
2022-10-18T05:17:14.397Z,999.49
2022-10-18T05:18:16.077Z,999.49
2022-10-18T05:19:17.876Z,999.51
2022-10-18T05:20:19.549Z,999.54
2022-10-18T05:21:21.348Z,999.54
2022-10-18T05:22:23.006Z,999.61
2022-10-18T05:23:24.752Z,999.64
2022-10-18T05:24:27.772Z,999.77
2022-10-18T05:25:28.230Z,999.83
2022-10-18T05:26:29.956Z,999.88
2022-10-18T05:27:31.697Z,999.91
2022-10-18T05:28:39.180Z,999.96
2022-10-18T05:29:35.178Z,999.99
2022-10-18T05:30:36.919Z,999.91
2022-10-18T05:31:38.652Z,999.94
2022-10-18T05:32:40.415Z,999.98
2022-10-18T05:33:42.137Z,1000.01
2022-10-18T05:34:43.875Z,999.99
2022-10-18T05:35:45.609Z,999.98
2022-10-18T05:36:47.300Z,999.95
2022-10-18T05:37:49.035Z,999.87
2022-10-18T05:38:50.807Z,999.81
2022-10-18T05:39:52.542Z,999.79
2022-10-18T05:40:54.233Z,999.76
2022-10-18T05:41:55.975Z,999.74
2022-10-18T05:42:57.711Z,999.79
2022-10-18T05:43:59.450Z,999.75
2022-10-18T05:45:01.183Z,999.74
2022-10-18T05:46:02.937Z,999.77
2022-10-18T05:47:04.693Z,999.73
2022-10-18T05:48:06.400Z,999.71
2022-10-18T05:49:08.143Z,999.66
2022-10-18T05:50:09.890Z,999.61
2022-10-18T05:51:11.612Z,999.62
2022-10-18T05:52:13.324Z,999.68
2022-10-18T05:53:35.083Z,999.6
2022-10-18T05:54:16.801Z,999.59
2022-10-18T05:55:18.523Z,999.54
2022-10-18T05:56:20.297Z,999.6
2022-10-18T05:57:22.001Z,999.67
2022-10-18T05:58:23.755Z,999.7
2022-10-18T05:59:25.509Z,999.71
2022-10-18T06:00:27.281Z,999.76
2022-10-18T06:01:28.930Z,999.77
2022-10-18T06:02:30.756Z,999.76
2022-10-18T06:03:32.466Z,999.73
2022-10-18T06:04:34.145Z,999.73
2022-10-18T06:05:35.945Z,999.75
2022-10-18T06:06:37.646Z,999.83
2022-10-18T06:07:39.420Z,999.86
2022-10-18T06:08:44.279Z,999.92
2022-10-18T06:10:01.591Z,999.92
2022-10-18T06:12:09.653Z,999.95
2022-10-18T06:14:20.929Z,999.99
2022-10-18T06:15:51.084Z,1000.05
2022-10-18T06:17:59.657Z,999.96
2022-10-18T06:19:00.442Z,1000.03
2022-10-18T06:20:02.193Z,999.96
2022-10-18T06:21:03.873Z,999.9
2022-10-18T06:22:05.596Z,999.97
2022-10-18T06:23:07.366Z,999.95
2022-10-18T06:24:09.103Z,999.99
2022-10-18T06:25:10.844Z,1000.05
2022-10-18T06:26:12.551Z,1000.05
2022-10-18T06:27:14.236Z,1000.06
2022-10-18T06:28:29.390Z,1000
2022-10-18T06:29:31.086Z,999.85
2022-10-18T06:30:32.788Z,999.79
2022-10-18T06:31:34.513Z,999.81
2022-10-18T06:32:36.265Z,999.81
2022-10-18T06:33:50.145Z,999.84
2022-10-18T06:34:55.188Z,999.86
2022-10-18T06:35:56.906Z,999.88
2022-10-18T06:36:58.931Z,999.85
2022-10-18T06:38:00.397Z,999.83
2022-10-18T06:39:02.123Z,999.83
2022-10-18T06:40:03.850Z,999.81
2022-10-18T06:41:05.657Z,999.77
2022-10-18T06:42:59.933Z,999.77
2022-10-18T06:43:49.752Z,999.78
2022-10-18T06:44:52.618Z,999.79
2022-10-18T06:45:53.248Z,999.84
2022-10-18T06:52:51.217Z,999.99
2022-10-18T06:54:06.272Z,1000.04
2022-10-18T06:54:57.542Z,1000.09
2022-10-18T06:56:21.148Z,1000.13
2022-10-18T06:57:46.238Z,1000.17
2022-10-18T06:59:58.945Z,1000.24
2022-10-18T07:01:00.689Z,1000.2
2022-10-18T07:02:02.396Z,1000.27
2022-10-18T07:03:08.410Z,1000.29
2022-10-18T07:04:10.953Z,1000.25
2022-10-18T07:05:12.694Z,1000.24
2022-10-18T07:06:13.552Z,1000.24
2022-10-18T07:07:16.117Z,1000.23
2022-10-18T07:08:17.847Z,1000.25
2022-10-18T07:09:55.330Z,1000.31
2022-10-18T07:10:56.304Z,1000.34
2022-10-18T07:12:00.031Z,1000.37
2022-10-18T07:13:20.074Z,1000.31
2022-10-18T07:14:02.131Z,1000.37
2022-10-18T07:15:09.087Z,1000.37
2022-10-18T07:16:07.343Z,1000.37
2022-10-18T07:17:08.310Z,1000.36
2022-10-18T07:18:12.157Z,1000.4
2022-10-18T07:19:13.874Z,1000.41
2022-10-18T07:20:15.597Z,1000.42
2022-10-18T07:21:17.331Z,1000.4
2022-10-18T07:22:19.058Z,1000.44
2022-10-18T07:23:20.805Z,1000.43
2022-10-18T07:24:22.581Z,1000.47
2022-10-18T07:25:27.080Z,1000.47
2022-10-18T07:26:25.989Z,1000.51
2022-10-18T07:27:27.743Z,1000.49
2022-10-18T07:28:30.911Z,1000.46
2022-10-18T07:29:31.187Z,1000.48
2022-10-18T07:30:32.929Z,1000.49
2022-10-18T07:31:36.230Z,1000.44
2022-10-18T07:32:36.408Z,1000.45
2022-10-18T07:33:38.159Z,1000.39
2022-10-18T07:34:39.866Z,1000.41
2022-10-18T07:35:41.602Z,1000.4
2022-10-18T07:36:43.341Z,1000.37
2022-10-18T07:37:45.063Z,1000.41
2022-10-18T07:38:46.795Z,1000.43
2022-10-18T07:39:48.530Z,1000.46
2022-10-18T07:40:50.267Z,1000.46
2022-10-18T07:41:52.050Z,1000.51
2022-10-18T07:42:53.758Z,1000.5
2022-10-18T07:43:55.478Z,1000.46
2022-10-18T07:44:57.265Z,1000.54
2022-10-18T07:45:58.940Z,1000.49
2022-10-18T07:47:00.672Z,1000.52
2022-10-18T07:48:02.415Z,1000.52
2022-10-18T07:49:04.142Z,1000.49
2022-10-18T07:50:05.932Z,1000.49
2022-10-18T07:51:07.609Z,1000.49
2022-10-18T07:52:09.364Z,1000.51
2022-10-18T07:53:12.491Z,1000.46
2022-10-18T07:54:12.834Z,1000.5
2022-10-18T07:55:14.555Z,1000.53
2022-10-18T07:56:16.574Z,1000.52
2022-10-18T07:57:18.054Z,1000.56
2022-10-18T07:58:19.735Z,1000.54
2022-10-18T07:59:21.506Z,1000.54
2022-10-18T08:00:23.236Z,1000.55
2022-10-18T08:01:25.031Z,1000.59
2022-10-18T08:02:26.689Z,1000.61
2022-10-18T08:03:28.427Z,1000.64
2022-10-18T08:04:30.189Z,1000.56
2022-10-18T08:06:33.606Z,1000.59
2022-10-18T08:07:35.557Z,1000.67
2022-10-18T08:08:37.135Z,1000.64
2022-10-18T08:09:38.837Z,1000.67
2022-10-18T08:10:40.559Z,1000.66
2022-10-18T08:11:42.294Z,1000.69
2022-10-18T08:12:44.045Z,1000.67
2022-10-18T08:13:45.788Z,1000.67
2022-10-18T08:14:47.488Z,1000.74
2022-10-18T08:15:49.230Z,1000.73
2022-10-18T08:16:50.959Z,1000.73
2022-10-18T08:17:52.691Z,1000.75
2022-10-18T08:18:54.457Z,1000.78
2022-10-18T08:20:11.903Z,1000.78
2022-10-18T08:20:57.891Z,1000.8
2022-10-18T08:21:59.625Z,1000.8
2022-10-18T08:23:01.361Z,1000.8
2022-10-18T08:24:03.108Z,1000.77
2022-10-18T08:25:04.835Z,1000.79
2022-10-18T08:26:06.565Z,1000.81
2022-10-18T08:27:08.305Z,1000.76
2022-10-18T08:28:10.116Z,1000.76
2022-10-18T08:29:22.528Z,1000.79
2022-10-18T08:30:13.619Z,1000.77
2022-10-18T08:31:15.253Z,1000.78
2022-10-18T08:32:18.191Z,1000.79
2022-10-18T08:33:18.722Z,1000.82
2022-10-18T08:34:21.980Z,1000.82
2022-10-18T08:35:22.170Z,1000.81
2022-10-18T08:36:23.903Z,1000.82
2022-10-18T08:37:25.640Z,1000.83
2022-10-18T08:38:27.380Z,1000.83
2022-10-18T08:39:29.132Z,1000.84
2022-10-18T08:40:30.875Z,1000.81
2022-10-18T08:41:32.628Z,1000.85
2022-10-18T08:42:34.912Z,1000.82
2022-10-18T08:44:37.791Z,1000.91
2022-10-18T08:45:42.940Z,1000.93
2022-10-18T08:46:41.269Z,1000.93
2022-10-18T08:47:42.989Z,1000.95
2022-10-18T08:48:44.728Z,1000.97
2022-10-18T08:49:47.420Z,1000.97
2022-10-18T08:50:48.192Z,1000.96
2022-10-18T08:51:49.965Z,1000.98
2022-10-18T08:52:51.720Z,1000.98
2022-10-18T08:53:53.428Z,1000.98
2022-10-18T08:54:56.296Z,1001.01
2022-10-18T08:55:56.848Z,1001.01
2022-10-18T08:56:58.594Z,1001.02
2022-10-18T08:58:00.324Z,1001.01
2022-10-18T08:59:02.061Z,1000.98
2022-10-18T09:00:03.937Z,1001.01
2022-10-18T09:01:04.953Z,1001.01
2022-10-18T09:02:06.130Z,1001.01
2022-10-18T09:03:06.467Z,1000.99
2022-10-18T09:04:08.136Z,1001
2022-10-18T09:05:09.920Z,1001.03
2022-10-18T09:06:19.850Z,1001.03
2022-10-18T09:07:18.546Z,1001.08
2022-10-18T09:08:19.499Z,1001.09
2022-10-18T09:09:21.970Z,1001.12
2022-10-18T09:10:23.804Z,1001.12
2022-10-18T09:11:26.764Z,1001.14
2022-10-18T09:12:55.754Z,1001.09
2022-10-18T09:14:10.424Z,1001.11
2022-10-18T09:15:12.853Z,1001.12
2022-10-18T09:16:14.587Z,1001.15
2022-10-18T09:17:16.402Z,1001.11
2022-10-18T09:18:19.227Z,1001.09
2022-10-18T09:19:19.869Z,1001.12
2022-10-18T09:20:21.519Z,1001.13
2022-10-18T09:21:24.497Z,1001.15
2022-10-18T09:22:24.979Z,1001.15
2022-10-18T09:23:27.876Z,1001.16
2022-10-18T09:24:28.435Z,1001.13
2022-10-18T09:25:30.215Z,1001.16
2022-10-18T09:26:32.982Z,1001.12
2022-10-18T09:27:33.633Z,1001.16
2022-10-18T09:28:35.444Z,1001.15
2022-10-18T09:29:41.404Z,1001.12
2022-10-18T09:30:44.022Z,1001.12
2022-10-18T09:31:45.753Z,1001.14
2022-10-18T09:32:51.882Z,1001.14
2022-10-18T09:33:54.318Z,1001.12
2022-10-18T09:34:56.055Z,1001.09
2022-10-18T09:35:57.779Z,1001.1
2022-10-18T09:36:59.516Z,1001.12
2022-10-18T09:38:01.280Z,1001.06
2022-10-18T09:39:02.994Z,1001.05
2022-10-18T09:40:04.720Z,1001.09
2022-10-18T09:41:06.460Z,1001.09
2022-10-18T09:42:07.580Z,1001.02
2022-10-18T09:43:09.920Z,1001.1
2022-10-18T09:44:11.682Z,1001.02
2022-10-18T09:45:13.382Z,1001.08
2022-10-18T09:46:15.125Z,1001.01
2022-10-18T09:47:17.219Z,1001
2022-10-18T09:48:18.574Z,1001.02
2022-10-18T09:49:20.302Z,1000.99
2022-10-18T09:50:22.007Z,1000.99
2022-10-18T09:51:23.759Z,1000.96
2022-10-18T09:52:26.304Z,1001.01
2022-10-18T09:53:27.307Z,1001.01
2022-10-18T09:54:29.040Z,1001
2022-10-18T09:55:31.601Z,1001.02
2022-10-18T09:56:33.870Z,1001.02
2022-10-18T09:57:34.530Z,1001.04
2022-10-18T09:58:41.058Z,1000.98
2022-10-18T09:59:42.739Z,1001.02
2022-10-18T10:00:45.022Z,1001.01
2022-10-18T10:01:46.234Z,1001
2022-10-18T10:02:48.053Z,1001.04
2022-10-18T10:03:49.728Z,1001
2022-10-18T10:04:51.445Z,1001
2022-10-18T10:05:53.300Z,1001.01
2022-10-18T10:06:56.040Z,1001.02
2022-10-18T10:08:00.863Z,1001.04
2022-10-18T10:09:03.581Z,1001.04
2022-10-18T10:10:07.829Z,1001.04
2022-10-18T10:11:13.532Z,1001.06
2022-10-18T10:12:13.889Z,1001.05
2022-10-18T10:13:15.635Z,1001.06
2022-10-18T10:14:17.392Z,1001.03
2022-10-18T10:15:19.077Z,1001.01
2022-10-18T10:16:20.834Z,1001.05
2022-10-18T10:17:22.574Z,1001.09
2022-10-18T10:18:28.239Z,1001.06
2022-10-18T10:19:31.944Z,1001.09
2022-10-18T10:20:32.895Z,1001.14
2022-10-18T10:21:34.604Z,1001.17
2022-10-18T10:22:36.331Z,1001.19
2022-10-18T10:23:38.050Z,1001.23
2022-10-18T10:24:39.827Z,1001.24
2022-10-18T10:25:41.520Z,1001.24
2022-10-18T10:26:43.255Z,1001.21
2022-10-18T10:27:45.018Z,1001.2
2022-10-18T10:28:46.795Z,1001.18
2022-10-18T10:29:48.554Z,1001.2
2022-10-18T10:30:50.210Z,1001.25
2022-10-18T10:31:51.919Z,1001.26
2022-10-18T10:32:53.661Z,1001.25
2022-10-18T10:33:55.431Z,1001.32
2022-10-18T10:34:57.131Z,1001.3
2022-10-18T10:35:58.891Z,1001.34
2022-10-18T10:37:00.603Z,1001.33
2022-10-18T10:38:02.379Z,1001.36
2022-10-18T10:39:04.075Z,1001.37
2022-10-18T10:40:19.050Z,1001.38
2022-10-18T10:41:07.552Z,1001.4
2022-10-18T10:42:11.470Z,1001.42
2022-10-18T10:43:18.187Z,1001.47
2022-10-18T10:44:12.755Z,1001.42
2022-10-18T10:45:14.500Z,1001.45
2022-10-18T10:46:16.219Z,1001.52
2022-10-18T10:47:17.963Z,1001.52
2022-10-18T10:48:19.701Z,1001.47
2022-10-18T10:49:39.034Z,1001.52
2022-10-18T10:50:23.204Z,1001.51
2022-10-18T10:51:24.894Z,1001.52
2022-10-18T10:52:27.987Z,1001.52
2022-10-18T10:53:28.355Z,1001.55
2022-10-18T10:54:30.109Z,1001.55
2022-10-18T10:55:35.401Z,1001.53
2022-10-18T10:56:33.566Z,1001.5
2022-10-18T10:57:35.302Z,1001.58
2022-10-18T10:58:37.032Z,1001.55
2022-10-18T10:59:38.807Z,1001.56
2022-10-18T11:00:43.113Z,1001.55
2022-10-18T11:01:47.425Z,1001.57
2022-10-18T11:03:00.603Z,1001.53
2022-10-18T11:03:52.174Z,1001.47
2022-10-18T11:04:52.590Z,1001.5
2022-10-18T11:05:57.233Z,1001.5
2022-10-18T11:06:58.622Z,1001.46
2022-10-18T11:08:00.975Z,1001.4
2022-10-18T11:09:02.726Z,1001.39
2022-10-18T11:10:04.485Z,1001.38
2022-10-18T11:11:06.164Z,1001.37
2022-10-18T11:12:08.934Z,1001.36
2022-10-18T11:13:09.571Z,1001.35
2022-10-18T11:14:25.185Z,1001.34
2022-10-18T11:15:13.054Z,1001.38
2022-10-18T11:16:14.790Z,1001.4
2022-10-18T11:17:18.025Z,1001.4
2022-10-18T11:18:18.249Z,1001.41
2022-10-18T11:19:20.017Z,1001.38
2022-10-18T11:20:21.991Z,1001.45
2022-10-18T11:21:23.526Z,1001.39
2022-10-18T11:22:26.412Z,1001.42
2022-10-18T11:23:26.963Z,1001.43
2022-10-18T11:24:28.679Z,1001.4
2022-10-18T11:25:35.540Z,1001.35
2022-10-18T11:26:40.981Z,1001.34
2022-10-18T11:27:39.051Z,1001.26
2022-10-18T11:28:40.862Z,1001.27
2022-10-18T11:29:52.802Z,1001.27
2022-10-18T11:30:53.385Z,1001.21
2022-10-18T11:31:54.137Z,1001.23
2022-10-18T11:32:56.813Z,1001.25
2022-10-18T11:34:08.143Z,1001.24
2022-10-18T11:34:59.352Z,1001.26
2022-10-18T11:36:21.075Z,1001.24
2022-10-18T11:37:30.111Z,1001.28
2022-10-18T11:38:28.197Z,1001.28
2022-10-18T11:39:29.336Z,1001.29
2022-10-18T11:40:35.384Z,1001.3
2022-10-18T11:41:37.302Z,1001.28
2022-10-18T11:42:40.251Z,1001.3
2022-10-18T11:44:01.086Z,1001.29
2022-10-18T11:44:42.223Z,1001.21
2022-10-18T11:45:43.948Z,1001.28
2022-10-18T11:46:59.034Z,1001.28
2022-10-18T11:48:00.789Z,1001.26
2022-10-18T11:49:18.887Z,1001.26
2022-10-18T11:50:33.889Z,1001.24
2022-10-18T11:51:50.249Z,1001.34
2022-10-18T11:52:37.123Z,1001.26
2022-10-18T11:53:38.820Z,1001.29
2022-10-18T11:55:42.646Z,1001.29
2022-10-18T11:56:42.924Z,1001.28
2022-10-18T11:57:44.622Z,1001.3
2022-10-18T11:58:46.336Z,1001.24
2022-10-18T11:59:48.130Z,1001.24
2022-10-18T12:01:00.426Z,1001.25
2022-10-18T12:02:03.297Z,1001.26
2022-10-18T12:03:03.619Z,1001.27
2022-10-18T12:04:05.441Z,1001.3
2022-10-18T12:05:24.757Z,1001.23
2022-10-18T12:06:08.907Z,1001.3
2022-10-18T12:07:10.620Z,1001.26
2022-10-18T12:08:12.343Z,1001.27
2022-10-18T12:09:14.070Z,1001.26
2022-10-18T12:10:22.036Z,1001.24
2022-10-18T12:11:17.532Z,1001.19
2022-10-18T12:12:19.261Z,1001.17
2022-10-18T12:13:21.008Z,1001.16
2022-10-18T12:14:22.749Z,1001.14
2022-10-18T12:15:24.467Z,1001.14
2022-10-18T12:16:49.527Z,1001.14
2022-10-18T12:17:42.931Z,1001.09
2022-10-18T12:18:29.677Z,1001.12
2022-10-18T12:19:31.408Z,1001.07
2022-10-18T12:21:05.590Z,1001.1
2022-10-18T12:22:06.288Z,1001.09
2022-10-18T12:23:08.054Z,1001.06
2022-10-18T12:24:09.751Z,1001.08
2022-10-18T12:25:11.477Z,1001.03
2022-10-18T12:26:13.271Z,1001.06
2022-10-18T12:27:14.965Z,1001.05
2022-10-18T12:28:16.765Z,1001.03
2022-10-18T12:29:28.768Z,1001.05
2022-10-18T12:30:30.513Z,1001.03
2022-10-18T12:31:36.556Z,1001.03
2022-10-18T12:32:39.045Z,1001.02
2022-10-18T12:33:40.803Z,1001.02
2022-10-18T12:34:42.514Z,1001.02
2022-10-18T12:35:44.303Z,1001.02
2022-10-18T12:36:45.984Z,1001.03
2022-10-18T12:37:47.715Z,1001
2022-10-18T12:38:49.486Z,1000.97
2022-10-18T12:40:09.130Z,1000.96
2022-10-18T12:40:52.961Z,1000.95
2022-10-18T12:41:54.738Z,1000.96
2022-10-18T12:42:56.438Z,1000.96
2022-10-18T12:43:58.199Z,1000.97
2022-10-18T12:44:59.929Z,1000.96
2022-10-18T12:46:01.666Z,1000.94
2022-10-18T12:47:03.366Z,1000.94
2022-10-18T12:48:05.096Z,1000.92
2022-10-18T12:49:06.866Z,1000.94
2022-10-18T12:50:08.571Z,1000.88
2022-10-18T12:51:10.323Z,1000.93
2022-10-18T12:52:12.043Z,1000.88
2022-10-18T12:53:13.771Z,1000.9
2022-10-18T12:54:15.511Z,1000.9
2022-10-18T12:55:17.843Z,1000.89
2022-10-18T12:56:20.825Z,1000.85
2022-10-18T12:57:20.678Z,1000.86
2022-10-18T12:58:22.477Z,1000.91
2022-10-18T12:59:24.242Z,1000.92
2022-10-18T13:00:27.292Z,1000.9
2022-10-18T13:01:29.054Z,1000.91
2022-10-18T13:02:29.496Z,1000.92
2022-10-18T13:03:31.142Z,1000.92